Steven M. Bryan — WDF2628 — position and weather

sailwx.info

Track history (hours):
 
Tides and Currents Weather Stations Pressure Air Temp Water Temp Dewpoint Dewpoint Depression Visibility Wind Speed Wind Dir Waves Ship Positions

Steven M. Bryan

Owner: Florida Marine Transporters, Inc., Mandeville, LA. More information available from US FCC via Universal Licensing System and Coast Guard Vessel Documentation Center.

Last reported at 2018-Jan-20 10:43 UTC. Time now 2018-Jan-22 15:50 UTC.
Position N 29°49' W 092°02'.

Length 27 m; draft 9.6 m.

Type: Ship. MMSI: 367430050.

Date/timePositionNaut miles runAvg speedWind from/ knotsBaromVisibWave heightAir tempDewpointWater temp
2018-Jan-20 10:43N 29°49' W 092°02'3 5.7
2018-Jan-20 10:06N 29°48' W 092°06'1 5.7
2018-Jan-20 10:00N 29°48' W 092°07'3 5.2
2018-Jan-20 09:30N 29°47' W 092°10'2 4.2
2018-Jan-20 09:00N 29°47' W 092°12'1 2.2
2018-Jan-20 08:30N 29°47' W 092°13'1 1.6
2018-Jan-20 07:57N 29°48' W 092°14'0 0.0
2018-Jan-20 07:29N 29°48' W 092°14'0 0.0
2018-Jan-20 06:59N 29°48' W 092°14'0 0.0
2018-Jan-20 06:30N 29°48' W 092°14'0 0.0
2018-Jan-20 06:00N 29°48' W 092°14'0 0.1
2018-Jan-20 05:30N 29°48' W 092°14'2 3.6
2018-Jan-20 05:00N 29°49' W 092°16'3 5.1
2018-Jan-20 04:27N 29°50' W 092°19'7 4.9
2018-Jan-20 03:02N 29°53' W 092°26'0 5.5
2018-Jan-20 03:00N 29°53' W 092°26'18 5.3
2018-Jan-19 23:36N 29°58' W 092°46'4 5.5
2018-Jan-19 22:52N 29°58' W 092°51'2 5.3
2018-Jan-19 22:30N 29°57' W 092°53'8 5.1
2018-Jan-19 20:53N 29°56' W 093°02'3 4.9
2018-Jan-19 20:21N 29°56' W 093°05'2 5.0
2018-Jan-19 20:00N 29°56' W 093°07'2 4.7
2018-Jan-19 19:30N 29°57' W 093°10'2 4.7
2018-Jan-19 19:00N 29°58' W 093°12'2 4.9
2018-Jan-19 18:30N 30°00' W 093°14'2 4.1
2018-Jan-19 18:00N 30°02' W 093°15'2 4.7
2018-Jan-19 17:30N 30°04' W 093°16'2 3.5
2018-Jan-19 17:00N 30°05' W 093°18'1 1.6
2018-Jan-19 16:30N 30°06' W 093°18'0 0.2
2018-Jan-19 16:00N 30°06' W 093°18'0 0.0
2018-Jan-19 15:25N 30°06' W 093°18'0 0.1
2018-Jan-19 15:00N 30°06' W 093°18'1 2.1
2018-Jan-19 14:30N 30°06' W 093°19'2 4.0
2018-Jan-19 14:00N 30°04' W 093°21'1 1.9
2018-Jan-19 13:30N 30°04' W 093°22'1 1.0
2018-Jan-19 13:00N 30°04' W 093°22'0 0.3
2018-Jan-19 12:30N 30°04' W 093°22'1 2.5
2018-Jan-19 12:00N 30°04' W 093°24'2 3.3
2018-Jan-19 11:30N 30°04' W 093°26'2 3.9
2018-Jan-19 10:59N 30°04' W 093°28'2 4.4
2018-Jan-19 10:30N 30°04' W 093°31'2 4.4
2018-Jan-19 10:00N 30°04' W 093°33'2 4.4
2018-Jan-19 09:30N 30°04' W 093°36'2 4.4
2018-Jan-19 09:00N 30°04' W 093°38'2 4.3
2018-Jan-19 08:30N 30°04' W 093°41'2 4.5
2018-Jan-19 08:00N 30°03' W 093°43'68 3.3
2018-Jan-18 11:13N 29°31' W 094°53'1 5.3
2018-Jan-18 11:00N 29°32' W 094°54'3 5.7
2018-Jan-18 10:30N 29°34' W 094°55'3 5.8
2018-Jan-18 10:00N 29°37' W 094°57'3 6.1
2018-Jan-18 09:30N 29°39' W 094°58'3 6.1
2018-Jan-18 08:59N 29°42' W 095°00'  
2018-Jan-12 09:07N 29°50' W 092°20'1 3.7
2018-Jan-12 08:46N 29°50' W 092°18'1 3.2
2018-Jan-12 08:30N 29°50' W 092°18'1 2.8
2018-Jan-12 08:00N 29°49' W 092°16'2 3.8
2018-Jan-12 07:30N 29°48' W 092°14'2 4.0
2018-Jan-12 07:00N 29°47' W 092°12'2 3.6
2018-Jan-12 06:30N 29°47' W 092°10'2 3.1
2018-Jan-12 06:00N 29°47' W 092°09'2 4.8
2018-Jan-12 05:30N 29°48' W 092°06'3 5.0
2018-Jan-12 05:00N 29°49' W 092°03'  
Track history (hours):
 
Tides and Currents Weather Stations Pressure Air Temp Water Temp Dewpoint Dewpoint Depression Visibility Wind Speed Wind Dir Waves Ship Positions

Steven M. Bryan

Owner: Florida Marine Transporters, Inc., Mandeville, LA. More information available from US FCC via Universal Licensing System and Coast Guard Vessel Documentation Center.

Last reported at 2018-Jan-20 10:43 UTC. Time now 2018-Jan-22 15:50 UTC.
Position N 29°49' W 092°02'.

Length 27 m; draft 9.6 m.

Type: Ship. MMSI: 367430050.

Date/timePositionNaut miles runAvg speedWind from/ knotsBaromVisibWave heightAir tempDewpointWater temp
2018-Jan-20 10:43N 29°49' W 092°02'3 5.7
2018-Jan-20 10:06N 29°48' W 092°06'1 5.7
2018-Jan-20 10:00N 29°48' W 092°07'3 5.2
2018-Jan-20 09:30N 29°47' W 092°10'2 4.2
2018-Jan-20 09:00N 29°47' W 092°12'1 2.2
2018-Jan-20 08:30N 29°47' W 092°13'1 1.6
2018-Jan-20 07:57N 29°48' W 092°14'0 0.0
2018-Jan-20 07:29N 29°48' W 092°14'0 0.0
2018-Jan-20 06:59N 29°48' W 092°14'0 0.0
2018-Jan-20 06:30N 29°48' W 092°14'0 0.0
2018-Jan-20 06:00N 29°48' W 092°14'0 0.1
2018-Jan-20 05:30N 29°48' W 092°14'2 3.6
2018-Jan-20 05:00N 29°49' W 092°16'3 5.1
2018-Jan-20 04:27N 29°50' W 092°19'7 4.9
2018-Jan-20 03:02N 29°53' W 092°26'0 5.5
2018-Jan-20 03:00N 29°53' W 092°26'18 5.3
2018-Jan-19 23:36N 29°58' W 092°46'4 5.5
2018-Jan-19 22:52N 29°58' W 092°51'2 5.3
2018-Jan-19 22:30N 29°57' W 092°53'8 5.1
2018-Jan-19 20:53N 29°56' W 093°02'3 4.9
2018-Jan-19 20:21N 29°56' W 093°05'2 5.0
2018-Jan-19 20:00N 29°56' W 093°07'2 4.7
2018-Jan-19 19:30N 29°57' W 093°10'2 4.7
2018-Jan-19 19:00N 29°58' W 093°12'2 4.9
2018-Jan-19 18:30N 30°00' W 093°14'2 4.1
2018-Jan-19 18:00N 30°02' W 093°15'2 4.7
2018-Jan-19 17:30N 30°04' W 093°16'2 3.5
2018-Jan-19 17:00N 30°05' W 093°18'1 1.6
2018-Jan-19 16:30N 30°06' W 093°18'0 0.2
2018-Jan-19 16:00N 30°06' W 093°18'0 0.0
2018-Jan-19 15:25N 30°06' W 093°18'0 0.1
2018-Jan-19 15:00N 30°06' W 093°18'1 2.1
2018-Jan-19 14:30N 30°06' W 093°19'2 4.0
2018-Jan-19 14:00N 30°04' W 093°21'1 1.9
2018-Jan-19 13:30N 30°04' W 093°22'1 1.0
2018-Jan-19 13:00N 30°04' W 093°22'0 0.3
2018-Jan-19 12:30N 30°04' W 093°22'1 2.5
2018-Jan-19 12:00N 30°04' W 093°24'2 3.3
2018-Jan-19 11:30N 30°04' W 093°26'2 3.9
2018-Jan-19 10:59N 30°04' W 093°28'2 4.4
2018-Jan-19 10:30N 30°04' W 093°31'2 4.4
2018-Jan-19 10:00N 30°04' W 093°33'2 4.4
2018-Jan-19 09:30N 30°04' W 093°36'2 4.4
2018-Jan-19 09:00N 30°04' W 093°38'2 4.3
2018-Jan-19 08:30N 30°04' W 093°41'2 4.5
2018-Jan-19 08:00N 30°03' W 093°43'68 3.3
2018-Jan-18 11:13N 29°31' W 094°53'1 5.3
2018-Jan-18 11:00N 29°32' W 094°54'3 5.7
2018-Jan-18 10:30N 29°34' W 094°55'3 5.8
2018-Jan-18 10:00N 29°37' W 094°57'3 6.1
2018-Jan-18 09:30N 29°39' W 094°58'3 6.1
2018-Jan-18 08:59N 29°42' W 095°00'  
2018-Jan-12 09:07N 29°50' W 092°20'1 3.7
2018-Jan-12 08:46N 29°50' W 092°18'1 3.2
2018-Jan-12 08:30N 29°50' W 092°18'1 2.8
2018-Jan-12 08:00N 29°49' W 092°16'2 3.8
2018-Jan-12 07:30N 29°48' W 092°14'2 4.0
2018-Jan-12 07:00N 29°47' W 092°12'2 3.6
2018-Jan-12 06:30N 29°47' W 092°10'2 3.1
2018-Jan-12 06:00N 29°47' W 092°09'2 4.8
2018-Jan-12 05:30N 29°48' W 092°06'3 5.0
2018-Jan-12 05:00N 29°49' W 092°03'  

Dump ship's entire track history